sensor_id;sensor_type;location;lat;lon;timestamp;pressure;altitude;pressure_sealevel;temperature;humidity
7441;BME280;29616;51.950;8.572;2022-08-24T00:01:56;100196.78;;;19.36;100.00
7441;BME280;29616;51.950;8.572;2022-08-24T00:04:26;100203.59;;;19.34;100.00
7441;BME280;29616;51.950;8.572;2022-08-24T00:06:58;100193.28;;;19.15;100.00
7441;BME280;29616;51.950;8.572;2022-08-24T00:09:26;100193.66;;;19.05;100.00
7441;BME280;29616;51.950;8.572;2022-08-24T00:11:54;100195.09;;;18.95;100.00
7441;BME280;29616;51.950;8.572;2022-08-24T00:14:23;100188.47;;;18.96;100.00
7441;BME280;29616;51.950;8.572;2022-08-24T00:16:51;100190.22;;;19.03;100.00
7441;BME280;29616;51.950;8.572;2022-08-24T00:19:20;100198.69;;;18.95;100.00
7441;BME280;29616;51.950;8.572;2022-08-24T00:21:49;100201.63;;;18.87;100.00
7441;BME280;29616;51.950;8.572;2022-08-24T00:24:18;100196.31;;;18.86;100.00
7441;BME280;29616;51.950;8.572;2022-08-24T00:26:46;100196.53;;;18.84;100.00
7441;BME280;29616;51.950;8.572;2022-08-24T00:29:17;100199.84;;;18.73;100.00
7441;BME280;29616;51.950;8.572;2022-08-24T00:31:45;100190.84;;;18.64;100.00
7441;BME280;29616;51.950;8.572;2022-08-24T00:34:14;100186.75;;;18.60;100.00
7441;BME280;29616;51.950;8.572;2022-08-24T00:36:44;100196.69;;;18.48;100.00
7441;BME280;29616;51.950;8.572;2022-08-24T00:39:14;100193.59;;;18.37;100.00
7441;BME280;29616;51.950;8.572;2022-08-24T00:41:46;100183.34;;;18.31;100.00
7441;BME280;29616;51.950;8.572;2022-08-24T00:44:16;100205.63;;;18.23;100.00
7441;BME280;29616;51.950;8.572;2022-08-24T00:46:50;100206.25;;;18.25;100.00
7441;BME280;29616;51.950;8.572;2022-08-24T00:49:27;100200.28;;;18.21;100.00
7441;BME280;29616;51.950;8.572;2022-08-24T00:52:05;100194.56;;;18.23;100.00
7441;BME280;29616;51.950;8.572;2022-08-24T00:54:41;100197.97;;;18.25;100.00
7441;BME280;29616;51.950;8.572;2022-08-24T00:57:15;100188.34;;;18.21;100.00
7441;BME280;29616;51.950;8.572;2022-08-24T00:59:49;100191.72;;;18.16;100.00
7441;BME280;29616;51.950;8.572;2022-08-24T01:02:22;100198.56;;;18.20;100.00
7441;BME280;29616;51.950;8.572;2022-08-24T01:04:56;100201.06;;;18.15;100.00
7441;BME280;29616;51.950;8.572;2022-08-24T01:07:28;100205.69;;;18.08;100.00
7441;BME280;29616;51.950;8.572;2022-08-24T01:10:05;100194.03;;;17.91;100.00
7441;BME280;29616;51.950;8.572;2022-08-24T01:12:35;100194.16;;;17.83;100.00
7441;BME280;29616;51.950;8.572;2022-08-24T01:15:08;100207.19;;;17.89;100.00
7441;BME280;29616;51.950;8.572;2022-08-24T01:17:37;100203.53;;;17.82;100.00
7441;BME280;29616;51.950;8.572;2022-08-24T01:20:23;100196.94;;;17.83;100.00
7441;BME280;29616;51.950;8.572;2022-08-24T01:23:04;100183.09;;;17.62;100.00
7441;BME280;29616;51.950;8.572;2022-08-24T01:25:36;100193.25;;;17.76;100.00
7441;BME280;29616;51.950;8.572;2022-08-24T01:28:10;100207.72;;;17.78;100.00
7441;BME280;29616;51.950;8.572;2022-08-24T01:30:41;100204.81;;;17.86;100.00
7441;BME280;29616;51.950;8.572;2022-08-24T01:33:20;100199.50;;;17.85;100.00
7441;BME280;29616;51.950;8.572;2022-08-24T01:35:49;100202.94;;;17.87;100.00
7441;BME280;29616;51.950;8.572;2022-08-24T01:38:22;100198.91;;;17.89;100.00
7441;BME280;29616;51.950;8.572;2022-08-24T01:40:58;100191.94;;;17.93;100.00
7441;BME280;29616;51.950;8.572;2022-08-24T01:43:28;100196.16;;;17.89;100.00
7441;BME280;29616;51.950;8.572;2022-08-24T01:46:00;100196.53;;;17.86;100.00
7441;BME280;29616;51.950;8.572;2022-08-24T01:48:28;100189.38;;;17.71;100.00
7441;BME280;29616;51.950;8.572;2022-08-24T01:50:57;100181.47;;;17.68;100.00
7441;BME280;29616;51.950;8.572;2022-08-24T01:53:26;100200.75;;;17.82;100.00
7441;BME280;29616;51.950;8.572;2022-08-24T01:55:55;100201.16;;;17.79;100.00
7441;BME280;29616;51.950;8.572;2022-08-24T01:58:24;100198.50;;;17.71;100.00
7441;BME280;29616;51.950;8.572;2022-08-24T02:00:52;100206.22;;;17.76;100.00
7441;BME280;29616;51.950;8.572;2022-08-24T02:03:20;100201.94;;;17.73;100.00
7441;BME280;29616;51.950;8.572;2022-08-24T02:05:57;100196.25;;;17.60;100.00
7441;BME280;29616;51.950;8.572;2022-08-24T02:08:26;100196.09;;;17.62;100.00
7441;BME280;29616;51.950;8.572;2022-08-24T02:10:56;100197.03;;;17.54;100.00
7441;BME280;29616;51.950;8.572;2022-08-24T02:13:24;100203.63;;;17.53;100.00
7441;BME280;29616;51.950;8.572;2022-08-24T02:15:54;100200.69;;;17.40;100.00
7441;BME280;29616;51.950;8.572;2022-08-24T02:18:23;100197.50;;;17.58;100.00
7441;BME280;29616;51.950;8.572;2022-08-24T02:20:52;100201.41;;;17.63;100.00
7441;BME280;29616;51.950;8.572;2022-08-24T02:23:20;100210.09;;;17.81;100.00
7441;BME280;29616;51.950;8.572;2022-08-24T02:25:49;100210.63;;;17.91;100.00
7441;BME280;29616;51.950;8.572;2022-08-24T02:28:19;100193.50;;;17.81;100.00
7441;BME280;29616;51.950;8.572;2022-08-24T02:30:48;100201.69;;;17.89;100.00
7441;BME280;29616;51.950;8.572;2022-08-24T02:33:16;100206.94;;;17.84;100.00
7441;BME280;29616;51.950;8.572;2022-08-24T02:35:44;100206.59;;;17.73;100.00
7441;BME280;29616;51.950;8.572;2022-08-24T02:38:13;100197.66;;;17.71;100.00
7441;BME280;29616;51.950;8.572;2022-08-24T02:40:41;100206.81;;;17.71;100.00
7441;BME280;29616;51.950;8.572;2022-08-24T02:43:10;100197.06;;;17.75;100.00
7441;BME280;29616;51.950;8.572;2022-08-24T02:45:41;100202.88;;;17.80;100.00
7441;BME280;29616;51.950;8.572;2022-08-24T02:48:16;100202.94;;;17.87;100.00
7441;BME280;29616;51.950;8.572;2022-08-24T02:50:48;100196.50;;;17.80;100.00
7441;BME280;29616;51.950;8.572;2022-08-24T02:53:19;100207.66;;;17.93;100.00
7441;BME280;29616;51.950;8.572;2022-08-24T02:55:48;100206.59;;;17.94;100.00
7441;BME280;29616;51.950;8.572;2022-08-24T02:58:17;100194.44;;;17.88;100.00
7441;BME280;29616;51.950;8.572;2022-08-24T03:00:48;100205.50;;;17.88;100.00
7441;BME280;29616;51.950;8.572;2022-08-24T03:03:19;100207.59;;;17.86;100.00
7441;BME280;29616;51.950;8.572;2022-08-24T03:05:47;100214.19;;;17.85;100.00
7441;BME280;29616;51.950;8.572;2022-08-24T03:08:15;100208.28;;;17.88;100.00
7441;BME280;29616;51.950;8.572;2022-08-24T03:10:44;100207.03;;;17.91;100.00
7441;BME280;29616;51.950;8.572;2022-08-24T03:13:13;100211.69;;;17.90;100.00
7441;BME280;29616;51.950;8.572;2022-08-24T03:15:42;100203.78;;;17.87;100.00
7441;BME280;29616;51.950;8.572;2022-08-24T03:18:12;100216.16;;;17.91;100.00
7441;BME280;29616;51.950;8.572;2022-08-24T03:20:40;100219.84;;;17.98;100.00
7441;BME280;29616;51.950;8.572;2022-08-24T03:23:10;100216.81;;;18.14;100.00
7441;BME280;29616;51.950;8.572;2022-08-24T03:25:38;100207.66;;;18.14;100.00
7441;BME280;29616;51.950;8.572;2022-08-24T03:28:07;100209.03;;;18.25;100.00
7441;BME280;29616;51.950;8.572;2022-08-24T03:30:39;100212.69;;;18.32;100.00
7441;BME280;29616;51.950;8.572;2022-08-24T03:33:14;100197.81;;;18.33;100.00
7441;BME280;29616;51.950;8.572;2022-08-24T03:35:43;100209.00;;;18.46;100.00
7441;BME280;29616;51.950;8.572;2022-08-24T03:38:14;100215.31;;;18.40;100.00
7441;BME280;29616;51.950;8.572;2022-08-24T03:40:43;100218.72;;;18.42;100.00
7441;BME280;29616;51.950;8.572;2022-08-24T03:43:11;100203.59;;;18.38;100.00
7441;BME280;29616;51.950;8.572;2022-08-24T03:46:00;100204.78;;;18.29;100.00
7441;BME280;29616;51.950;8.572;2022-08-24T03:48:30;100189.56;;;18.11;100.00
7441;BME280;29616;51.950;8.572;2022-08-24T03:50:58;100208.53;;;18.14;100.00
7441;BME280;29616;51.950;8.572;2022-08-24T03:53:26;100210.34;;;18.07;100.00
7441;BME280;29616;51.950;8.572;2022-08-24T03:55:55;100209.84;;;17.97;100.00
7441;BME280;29616;51.950;8.572;2022-08-24T03:58:23;100208.06;;;17.90;100.00
7441;BME280;29616;51.950;8.572;2022-08-24T04:00:54;100209.31;;;17.87;100.00
7441;BME280;29616;51.950;8.572;2022-08-24T04:03:22;100211.88;;;17.89;100.00
7441;BME280;29616;51.950;8.572;2022-08-24T04:05:54;100210.56;;;17.85;100.00
7441;BME280;29616;51.950;8.572;2022-08-24T04:08:22;100190.22;;;17.71;100.00
7441;BME280;29616;51.950;8.572;2022-08-24T04:10:50;100204.31;;;17.76;100.00
7441;BME280;29616;51.950;8.572;2022-08-24T04:13:20;100216.69;;;18.01;100.00
7441;BME280;29616;51.950;8.572;2022-08-24T04:15:48;100206.94;;;18.05;100.00
7441;BME280;29616;51.950;8.572;2022-08-24T04:18:18;100210.09;;;18.02;100.00
7441;BME280;29616;51.950;8.572;2022-08-24T04:20:49;100209.19;;;17.95;100.00
7441;BME280;29616;51.950;8.572;2022-08-24T04:23:19;100215.38;;;17.97;100.00
7441;BME280;29616;51.950;8.572;2022-08-24T04:25:54;100219.34;;;17.88;100.00
7441;BME280;29616;51.950;8.572;2022-08-24T04:28:30;100219.03;;;17.83;100.00
7441;BME280;29616;51.950;8.572;2022-08-24T04:30:59;100217.41;;;17.89;100.00
7441;BME280;29616;51.950;8.572;2022-08-24T04:33:34;100225.97;;;17.94;100.00
7441;BME280;29616;51.950;8.572;2022-08-24T04:36:06;100215.25;;;17.84;100.00
7441;BME280;29616;51.950;8.572;2022-08-24T04:38:39;100226.50;;;17.83;100.00
7441;BME280;29616;51.950;8.572;2022-08-24T04:41:28;100227.94;;;17.79;100.00
7441;BME280;29616;51.950;8.572;2022-08-24T04:44:01;100215.63;;;17.81;100.00
7441;BME280;29616;51.950;8.572;2022-08-24T04:46:30;100227.28;;;17.77;100.00
7441;BME280;29616;51.950;8.572;2022-08-24T04:48:58;100224.31;;;17.78;100.00
7441;BME280;29616;51.950;8.572;2022-08-24T04:51:26;100221.63;;;17.85;100.00
7441;BME280;29616;51.950;8.572;2022-08-24T04:54:04;100227.16;;;17.85;100.00
7441;BME280;29616;51.950;8.572;2022-08-24T04:56:34;100214.38;;;17.84;100.00
7441;BME280;29616;51.950;8.572;2022-08-24T04:59:04;100223.41;;;17.92;100.00
7441;BME280;29616;51.950;8.572;2022-08-24T05:01:33;100231.66;;;18.07;100.00
7441;BME280;29616;51.950;8.572;2022-08-24T05:04:04;100227.66;;;18.16;100.00
7441;BME280;29616;51.950;8.572;2022-08-24T05:06:33;100235.22;;;18.29;100.00
7441;BME280;29616;51.950;8.572;2022-08-24T05:09:04;100231.53;;;18.43;100.00
7441;BME280;29616;51.950;8.572;2022-08-24T05:11:34;100232.84;;;18.47;100.00
7441;BME280;29616;51.950;8.572;2022-08-24T05:14:04;100242.97;;;18.61;100.00
7441;BME280;29616;51.950;8.572;2022-08-24T05:16:36;100233.66;;;18.68;100.00
7441;BME280;29616;51.950;8.572;2022-08-24T05:19:04;100222.50;;;18.83;100.00
7441;BME280;29616;51.950;8.572;2022-08-24T05:21:33;100238.63;;;19.07;100.00
7441;BME280;29616;51.950;8.572;2022-08-24T05:24:04;100249.19;;;19.31;100.00
7441;BME280;29616;51.950;8.572;2022-08-24T05:26:32;100236.06;;;19.47;100.00
7441;BME280;29616;51.950;8.572;2022-08-24T05:29:01;100228.44;;;19.62;100.00
7441;BME280;29616;51.950;8.572;2022-08-24T05:31:43;100246.66;;;19.84;100.00
7441;BME280;29616;51.950;8.572;2022-08-24T05:34:13;100232.81;;;19.90;100.00
7441;BME280;29616;51.950;8.572;2022-08-24T05:36:41;100233.47;;;20.12;100.00
7441;BME280;29616;51.950;8.572;2022-08-24T05:39:31;100248.91;;;20.34;100.00
7441;BME280;29616;51.950;8.572;2022-08-24T05:42:04;100244.00;;;20.49;100.00
7441;BME280;29616;51.950;8.572;2022-08-24T05:44:35;100252.97;;;20.78;100.00
7441;BME280;29616;51.950;8.572;2022-08-24T05:47:04;100255.69;;;21.10;100.00
7441;BME280;29616;51.950;8.572;2022-08-24T05:49:32;100249.00;;;21.44;100.00
7441;BME280;29616;51.950;8.572;2022-08-24T05:52:07;100258.50;;;21.68;100.00
7441;BME280;29616;51.950;8.572;2022-08-24T05:54:37;100251.84;;;21.69;100.00
7441;BME280;29616;51.950;8.572;2022-08-24T05:57:05;100262.84;;;22.02;100.00
7441;BME280;29616;51.950;8.572;2022-08-24T05:59:51;100253.94;;;22.24;100.00
7441;BME280;29616;51.950;8.572;2022-08-24T06:02:19;100263.88;;;22.39;100.00
7441;BME280;29616;51.950;8.572;2022-08-24T06:04:48;100262.59;;;22.72;100.00
7441;BME280;29616;51.950;8.572;2022-08-24T06:07:16;100275.13;;;23.06;100.00
7441;BME280;29616;51.950;8.572;2022-08-24T06:09:53;100276.47;;;23.22;100.00
7441;BME280;29616;51.950;8.572;2022-08-24T06:12:21;100281.31;;;23.51;100.00
7441;BME280;29616;51.950;8.572;2022-08-24T06:14:49;100267.38;;;23.99;100.00
7441;BME280;29616;51.950;8.572;2022-08-24T06:17:21;100270.03;;;23.94;100.00
7441;BME280;29616;51.950;8.572;2022-08-24T06:19:50;100280.75;;;23.61;100.00
7441;BME280;29616;51.950;8.572;2022-08-24T06:22:18;100281.91;;;23.53;100.00
7441;BME280;29616;51.950;8.572;2022-08-24T06:24:47;100282.22;;;23.45;100.00
7441;BME280;29616;51.950;8.572;2022-08-24T06:27:34;100266.06;;;23.29;100.00
7441;BME280;29616;51.950;8.572;2022-08-24T06:30:07;100270.69;;;22.99;100.00
7441;BME280;29616;51.950;8.572;2022-08-24T06:33:11;100281.97;;;22.85;100.00
7441;BME280;29616;51.950;8.572;2022-08-24T06:35:42;100285.50;;;22.74;100.00
7441;BME280;29616;51.950;8.572;2022-08-24T06:38:13;100291.94;;;22.75;100.00
7441;BME280;29616;51.950;8.572;2022-08-24T06:40:45;100285.03;;;23.63;100.00
7441;BME280;29616;51.950;8.572;2022-08-24T06:43:15;100286.03;;;24.46;100.00
7441;BME280;29616;51.950;8.572;2022-08-24T06:45:47;100293.16;;;25.76;100.00
7441;BME280;29616;51.950;8.572;2022-08-24T06:48:17;100299.53;;;25.37;100.00
7441;BME280;29616;51.950;8.572;2022-08-24T06:50:47;100296.31;;;26.48;100.00
7441;BME280;29616;51.950;8.572;2022-08-24T06:53:16;100289.19;;;28.44;96.17
7441;BME280;29616;51.950;8.572;2022-08-24T06:55:47;100292.81;;;28.93;89.58
7441;BME280;29616;51.950;8.572;2022-08-24T06:58:18;100302.34;;;29.70;85.42
7441;BME280;29616;51.950;8.572;2022-08-24T07:00:48;100301.16;;;29.51;82.81
7441;BME280;29616;51.950;8.572;2022-08-24T07:03:18;100303.16;;;28.87;85.09
7441;BME280;29616;51.950;8.572;2022-08-24T07:06:07;100303.50;;;29.69;80.23
7441;BME280;29616;51.950;8.572;2022-08-24T07:08:39;100310.91;;;29.38;80.55
7441;BME280;29616;51.950;8.572;2022-08-24T07:11:12;100307.63;;;29.20;81.08
7441;BME280;29616;51.950;8.572;2022-08-24T07:13:43;100304.25;;;30.01;76.72
7441;BME280;29616;51.950;8.572;2022-08-24T07:16:13;100308.34;;;30.36;72.97
7441;BME280;29616;51.950;8.572;2022-08-24T07:18:43;100312.91;;;30.62;71.31
7441;BME280;29616;51.950;8.572;2022-08-24T07:21:19;100318.63;;;29.58;77.46
7441;BME280;29616;51.950;8.572;2022-08-24T07:23:54;100315.75;;;29.11;79.76
7441;BME280;29616;51.950;8.572;2022-08-24T07:26:26;100329.44;;;28.71;85.90
7441;BME280;29616;51.950;8.572;2022-08-24T07:29:00;100323.22;;;28.42;85.95
7441;BME280;29616;51.950;8.572;2022-08-24T07:31:39;100316.97;;;28.40;86.85
7441;BME280;29616;51.950;8.572;2022-08-24T07:34:19;100328.94;;;28.52;85.31
7441;BME280;29616;51.950;8.572;2022-08-24T07:36:48;100324.72;;;29.40;78.07
7441;BME280;29616;51.950;8.572;2022-08-24T07:39:18;100330.13;;;29.93;75.93
7441;BME280;29616;51.950;8.572;2022-08-24T07:41:47;100330.34;;;30.39;71.01
7441;BME280;29616;51.950;8.572;2022-08-24T07:44:37;100326.53;;;31.20;67.59
7441;BME280;29616;51.950;8.572;2022-08-24T07:47:05;100325.31;;;30.56;67.77
7441;BME280;29616;51.950;8.572;2022-08-24T07:49:54;100322.81;;;30.70;67.33
7441;BME280;29616;51.950;8.572;2022-08-24T07:52:23;100330.22;;;31.26;64.76
7441;BME280;29616;51.950;8.572;2022-08-24T07:54:51;100335.31;;;31.19;62.16
7441;BME280;29616;51.950;8.572;2022-08-24T07:57:19;100344.03;;;31.33;62.80
7441;BME280;29616;51.950;8.572;2022-08-24T07:59:49;100345.16;;;31.37;59.67
7441;BME280;29616;51.950;8.572;2022-08-24T08:02:17;100345.09;;;30.71;63.41
7441;BME280;29616;51.950;8.572;2022-08-24T08:04:49;100352.94;;;30.44;64.52
7441;BME280;29616;51.950;8.572;2022-08-24T08:07:18;100352.72;;;30.86;62.05
7441;BME280;29616;51.950;8.572;2022-08-24T08:09:48;100351.31;;;31.84;59.72
7441;BME280;29616;51.950;8.572;2022-08-24T08:12:17;100364.66;;;32.53;57.48
7441;BME280;29616;51.950;8.572;2022-08-24T08:14:55;100360.13;;;32.52;57.43
7441;BME280;29616;51.950;8.572;2022-08-24T08:17:24;100358.53;;;32.84;55.77
7441;BME280;29616;51.950;8.572;2022-08-24T08:19:53;100361.41;;;33.23;53.09
7441;BME280;29616;51.950;8.572;2022-08-24T08:22:22;100360.28;;;33.19;52.55
7441;BME280;29616;51.950;8.572;2022-08-24T08:25:23;100361.00;;;31.53;57.92
7441;BME280;29616;51.950;8.572;2022-08-24T08:27:51;100350.81;;;31.32;59.83
7441;BME280;29616;51.950;8.572;2022-08-24T08:30:21;100350.25;;;31.09;59.04
7441;BME280;29616;51.950;8.572;2022-08-24T08:32:50;100353.63;;;31.16;58.85
7441;BME280;29616;51.950;8.572;2022-08-24T08:35:19;100346.28;;;31.36;59.05
7441;BME280;29616;51.950;8.572;2022-08-24T08:37:49;100355.88;;;30.99;60.30
7441;BME280;29616;51.950;8.572;2022-08-24T08:40:28;100347.34;;;31.90;56.27
7441;BME280;29616;51.950;8.572;2022-08-24T08:43:05;100361.41;;;32.20;54.67
7441;BME280;29616;51.950;8.572;2022-08-24T08:45:58;100344.19;;;32.17;54.12
7441;BME280;29616;51.950;8.572;2022-08-24T08:49:09;100352.44;;;32.03;53.69
7441;BME280;29616;51.950;8.572;2022-08-24T08:55:19;100364.91;;;31.82;55.85
7441;BME280;29616;51.950;8.572;2022-08-24T08:58:21;100341.59;;;32.20;53.39
7441;BME280;29616;51.950;8.572;2022-08-24T09:01:02;100342.41;;;32.31;54.36
7441;BME280;29616;51.950;8.572;2022-08-24T09:07:30;100348.44;;;32.14;53.43
7441;BME280;29616;51.950;8.572;2022-08-24T09:10:33;100352.38;;;32.13;52.71
7441;BME280;29616;51.950;8.572;2022-08-24T09:13:24;100354.75;;;32.50;51.90
7441;BME280;29616;51.950;8.572;2022-08-24T09:16:09;100354.88;;;32.79;51.76
7441;BME280;29616;51.950;8.572;2022-08-24T09:18:59;100346.75;;;32.72;53.19
7441;BME280;29616;51.950;8.572;2022-08-24T09:21:55;100339.78;;;33.32;50.40
7441;BME280;29616;51.950;8.572;2022-08-24T09:28:17;100342.69;;;33.85;49.61
7441;BME280;29616;51.950;8.572;2022-08-24T09:31:36;100359.38;;;34.81;48.14
7441;BME280;29616;51.950;8.572;2022-08-24T09:34:17;100338.56;;;34.86;47.72
7441;BME280;29616;51.950;8.572;2022-08-24T09:37:01;100349.25;;;34.51;45.54
7441;BME280;29616;51.950;8.572;2022-08-24T09:39:57;100344.09;;;34.58;44.60
7441;BME280;29616;51.950;8.572;2022-08-24T09:50:05;100335.88;;;35.45;42.89
7441;BME280;29616;51.950;8.572;2022-08-24T09:56:03;100339.00;;;35.62;42.56
7441;BME280;29616;51.950;8.572;2022-08-24T09:58:54;100336.34;;;35.52;44.22
7441;BME280;29616;51.950;8.572;2022-08-24T10:01:32;100333.81;;;34.81;45.55
7441;BME280;29616;51.950;8.572;2022-08-24T10:04:23;100331.66;;;34.92;45.33
7441;BME280;29616;51.950;8.572;2022-08-24T10:07:06;100331.38;;;35.90;42.67
7441;BME280;29616;51.950;8.572;2022-08-24T10:10:02;100329.03;;;35.14;43.51
7441;BME280;29616;51.950;8.572;2022-08-24T10:12:47;100320.47;;;35.33;43.55
7441;BME280;29616;51.950;8.572;2022-08-24T10:15:28;100324.59;;;35.40;42.74
7441;BME280;29616;51.950;8.572;2022-08-24T10:18:20;100316.97;;;35.22;43.38
7441;BME280;29616;51.950;8.572;2022-08-24T10:21:11;100320.91;;;35.58;42.01
7441;BME280;29616;51.950;8.572;2022-08-24T10:23:57;100320.19;;;35.80;41.49
7441;BME280;29616;51.950;8.572;2022-08-24T10:26:39;100329.34;;;35.90;41.29
7441;BME280;29616;51.950;8.572;2022-08-24T10:29:30;100319.56;;;35.97;41.21
7441;BME280;29616;51.950;8.572;2022-08-24T10:32:15;100324.22;;;35.93;40.04
7441;BME280;29616;51.950;8.572;2022-08-24T10:34:57;100301.16;;;35.16;42.26
7441;BME280;29616;51.950;8.572;2022-08-24T10:37:47;100309.03;;;35.83;40.82
7441;BME280;29616;51.950;8.572;2022-08-24T10:40:33;100306.41;;;36.01;40.10
7441;BME280;29616;51.950;8.572;2022-08-24T10:43:26;100310.38;;;35.59;41.19
7441;BME280;29616;51.950;8.572;2022-08-24T10:46:42;100305.28;;;35.42;40.95
7441;BME280;29616;51.950;8.572;2022-08-24T10:50:15;100312.84;;;36.20;39.29
7441;BME280;29616;51.950;8.572;2022-08-24T10:53:25;100299.16;;;36.22;39.58
7441;BME280;29616;51.950;8.572;2022-08-24T10:56:07;100308.09;;;36.56;39.18
7441;BME280;29616;51.950;8.572;2022-08-24T10:59:01;100305.91;;;36.12;39.55
7441;BME280;29616;51.950;8.572;2022-08-24T11:01:36;100306.63;;;36.81;38.91
7441;BME280;29616;51.950;8.572;2022-08-24T11:04:12;100300.78;;;36.64;38.49
7441;BME280;29616;51.950;8.572;2022-08-24T11:07:08;100303.03;;;36.53;38.19
7441;BME280;29616;51.950;8.572;2022-08-24T11:09:47;100286.69;;;37.17;37.69
7441;BME280;29616;51.950;8.572;2022-08-24T11:12:26;100300.81;;;37.44;35.42
7441;BME280;29616;51.950;8.572;2022-08-24T11:14:58;100304.75;;;36.76;35.97
7441;BME280;29616;51.950;8.572;2022-08-24T11:17:31;100310.03;;;36.83;36.21
7441;BME280;29616;51.950;8.572;2022-08-24T11:20:02;100305.88;;;36.53;36.27
7441;BME280;29616;51.950;8.572;2022-08-24T11:22:35;100295.25;;;37.17;35.76
7441;BME280;29616;51.950;8.572;2022-08-24T11:25:14;100305.16;;;36.07;37.67
7441;BME280;29616;51.950;8.572;2022-08-24T11:27:48;100306.41;;;36.01;38.17
7441;BME280;29616;51.950;8.572;2022-08-24T11:30:25;100303.53;;;36.69;38.67
7441;BME280;29616;51.950;8.572;2022-08-24T11:32:57;100294.91;;;36.60;37.08
7441;BME280;29616;51.950;8.572;2022-08-24T11:35:34;100293.31;;;37.26;35.97
7441;BME280;29616;51.950;8.572;2022-08-24T11:38:08;100294.31;;;37.83;35.51
7441;BME280;29616;51.950;8.572;2022-08-24T11:40:43;100292.34;;;38.31;34.92
7441;BME280;29616;51.950;8.572;2022-08-24T11:43:27;100289.03;;;38.38;34.93
7441;BME280;29616;51.950;8.572;2022-08-24T11:46:09;100293.94;;;38.97;34.17
7441;BME280;29616;51.950;8.572;2022-08-24T11:48:53;100295.13;;;39.22;33.58
7441;BME280;29616;51.950;8.572;2022-08-24T11:51:36;100274.78;;;38.80;33.67
7441;BME280;29616;51.950;8.572;2022-08-24T11:54:18;100286.72;;;39.00;33.57
7441;BME280;29616;51.950;8.572;2022-08-24T11:57:04;100288.38;;;39.44;33.76
7441;BME280;29616;51.950;8.572;2022-08-24T11:59:46;100293.88;;;39.66;33.08
7441;BME280;29616;51.950;8.572;2022-08-24T12:02:25;100292.63;;;39.20;32.94
7441;BME280;29616;51.950;8.572;2022-08-24T12:05:04;100283.78;;;39.60;32.34
7441;BME280;29616;51.950;8.572;2022-08-24T12:07:46;100280.34;;;38.86;32.54
7441;BME280;29616;51.950;8.572;2022-08-24T12:10:27;100291.44;;;39.21;32.26
7441;BME280;29616;51.950;8.572;2022-08-24T12:13:05;100288.72;;;38.99;31.48
7441;BME280;29616;51.950;8.572;2022-08-24T12:15:44;100282.38;;;38.85;32.48
7441;BME280;29616;51.950;8.572;2022-08-24T12:18:27;100283.13;;;38.51;32.69
7441;BME280;29616;51.950;8.572;2022-08-24T12:20:57;100279.94;;;38.36;32.26
7441;BME280;29616;51.950;8.572;2022-08-24T12:23:30;100278.34;;;38.77;32.18
7441;BME280;29616;51.950;8.572;2022-08-24T12:26:03;100276.47;;;38.90;32.22
7441;BME280;29616;51.950;8.572;2022-08-24T12:28:39;100277.28;;;38.48;33.11
7441;BME280;29616;51.950;8.572;2022-08-24T12:31:16;100263.38;;;39.06;31.99
7441;BME280;29616;51.950;8.572;2022-08-24T12:33:49;100270.59;;;39.12;32.24
7441;BME280;29616;51.950;8.572;2022-08-24T12:36:29;100270.16;;;40.03;31.26
7441;BME280;29616;51.950;8.572;2022-08-24T12:39:10;100258.47;;;39.15;30.91
7441;BME280;29616;51.950;8.572;2022-08-24T12:42:04;100266.47;;;39.65;31.54
7441;BME280;29616;51.950;8.572;2022-08-24T12:44:42;100268.09;;;38.76;31.55
7441;BME280;29616;51.950;8.572;2022-08-24T12:47:23;100267.38;;;38.62;32.20
7441;BME280;29616;51.950;8.572;2022-08-24T12:49:57;100257.44;;;39.28;31.30
7441;BME280;29616;51.950;8.572;2022-08-24T12:53:07;100260.16;;;39.25;31.52
7441;BME280;29616;51.950;8.572;2022-08-24T12:56:16;100261.00;;;39.08;31.07
7441;BME280;29616;51.950;8.572;2022-08-24T12:59:02;100268.66;;;39.68;31.10
7441;BME280;29616;51.950;8.572;2022-08-24T13:01:35;100263.16;;;39.92;30.36
7441;BME280;29616;51.950;8.572;2022-08-24T13:04:14;100266.53;;;40.23;30.03
7441;BME280;29616;51.950;8.572;2022-08-24T13:06:50;100273.78;;;39.28;30.25
7441;BME280;29616;51.950;8.572;2022-08-24T13:09:29;100250.66;;;39.50;30.26
7441;BME280;29616;51.950;8.572;2022-08-24T13:16:01;100264.97;;;40.34;29.18
7441;BME280;29616;51.950;8.572;2022-08-24T13:19:30;100258.91;;;40.07;30.02
7441;BME280;29616;51.950;8.572;2022-08-24T13:24:45;100256.91;;;39.90;30.15
7441;BME280;29616;51.950;8.572;2022-08-24T13:31:11;100259.06;;;40.02;28.53
7441;BME280;29616;51.950;8.572;2022-08-24T13:33:44;100250.06;;;39.82;29.85
7441;BME280;29616;51.950;8.572;2022-08-24T13:36:42;100256.84;;;40.66;29.28
7441;BME280;29616;51.950;8.572;2022-08-24T13:42:52;100250.94;;;40.12;29.25
7441;BME280;29616;51.950;8.572;2022-08-24T13:45:33;100250.94;;;40.12;29.18
7441;BME280;29616;51.950;8.572;2022-08-24T13:48:27;100253.09;;;39.86;29.95
7441;BME280;29616;51.950;8.572;2022-08-24T13:51:33;100254.25;;;40.52;29.12
7441;BME280;29616;51.950;8.572;2022-08-24T13:54:17;100251.94;;;39.78;29.51
7441;BME280;29616;51.950;8.572;2022-08-24T13:57:02;100249.84;;;39.96;29.77
7441;BME280;29616;51.950;8.572;2022-08-24T13:59:54;100245.47;;;39.90;29.75
7441;BME280;29616;51.950;8.572;2022-08-24T14:02:34;100243.00;;;40.18;30.53
7441;BME280;29616;51.950;8.572;2022-08-24T14:05:16;100242.56;;;40.57;29.13
7441;BME280;29616;51.950;8.572;2022-08-24T14:07:58;100243.44;;;40.58;28.53
7441;BME280;29616;51.950;8.572;2022-08-24T14:10:43;100245.72;;;39.76;28.99
7441;BME280;29616;51.950;8.572;2022-08-24T14:13:32;100242.22;;;37.99;30.84
7441;BME280;29616;51.950;8.572;2022-08-24T14:16:08;100229.44;;;37.27;31.44
7441;BME280;29616;51.950;8.572;2022-08-24T14:19:12;100235.41;;;36.72;32.44